createdAt,value
2023-01-19T00:00:26.911Z,14.87
2023-01-19T00:03:29.484Z,13.52
2023-01-19T00:06:32.505Z,13.25
2023-01-19T00:09:38.506Z,16.97
2023-01-19T00:12:40.909Z,13.43
2023-01-19T00:15:45.142Z,16.02
2023-01-19T00:18:48.028Z,15.05
2023-01-19T00:21:50.717Z,13.43
2023-01-19T00:24:52.984Z,17.23
2023-01-19T00:27:57.099Z,14.15
2023-01-19T00:30:59.935Z,14.80
2023-01-19T00:34:03.918Z,11.65
2023-01-19T00:37:07.439Z,13.13
2023-01-19T00:40:10.675Z,13.27
2023-01-19T00:43:12.994Z,11.98
2023-01-19T00:46:15.798Z,13.30
2023-01-19T00:49:18.701Z,13.25
2023-01-19T00:52:21.487Z,16.67
2023-01-19T00:55:24.046Z,10.50
2023-01-19T00:58:26.943Z,10.70
2023-01-19T01:01:45.056Z,11.60
2023-01-19T01:04:54.773Z,13.98
2023-01-19T01:07:57.474Z,10.93
2023-01-19T01:11:01.027Z,10.02
2023-01-19T01:14:03.289Z,9.27
2023-01-19T01:17:06.087Z,9.75
2023-01-19T01:20:09.140Z,10.50
2023-01-19T01:23:14.388Z,9.55
2023-01-19T01:26:16.648Z,7.40
2023-01-19T01:29:19.266Z,8.30
2023-01-19T01:32:21.616Z,7.20
2023-01-19T01:35:24.274Z,9.15
2023-01-19T01:38:26.696Z,7.25
2023-01-19T01:41:29.578Z,7.03
2023-01-19T01:44:54.640Z,11.12
2023-01-19T01:48:13.285Z,7.35
2023-01-19T01:51:30.976Z,5.40
2023-01-19T01:54:33.811Z,5.18
2023-01-19T01:57:39.017Z,6.03
2023-01-19T02:01:00.945Z,4.70
2023-01-19T02:04:03.718Z,3.85
2023-01-19T02:07:24.439Z,5.00
2023-01-19T02:10:45.717Z,4.20
2023-01-19T02:13:48.772Z,4.50
2023-01-19T02:16:51.745Z,3.85
2023-01-19T02:19:54.350Z,3.08
2023-01-19T02:23:03.871Z,3.20
2023-01-19T02:26:09.565Z,3.35
2023-01-19T02:29:16.353Z,3.60
2023-01-19T02:32:18.694Z,3.60
2023-01-19T02:35:22.545Z,2.55
2023-01-19T02:38:28.090Z,3.15
2023-01-19T02:41:35.902Z,1.87
2023-01-19T02:44:39.548Z,4.32
2023-01-19T02:47:51.166Z,2.12
2023-01-19T02:51:04.137Z,1.70
2023-01-19T02:54:24.573Z,1.77
2023-01-19T02:57:34.457Z,1.98
2023-01-19T03:00:46.900Z,1.33
2023-01-19T03:04:23.259Z,1.73
2023-01-19T03:07:44.866Z,1.40
2023-01-19T03:11:07.500Z,1.62
2023-01-19T03:14:20.162Z,1.70
2023-01-19T03:17:22.696Z,2.12
2023-01-19T03:20:28.806Z,1.27
2023-01-19T03:23:34.758Z,1.08
2023-01-19T03:26:44.180Z,1.42
2023-01-19T03:29:52.190Z,0.90
2023-01-19T03:33:05.197Z,1.12
2023-01-19T03:36:27.367Z,1.58
2023-01-19T03:39:30.842Z,1.25
2023-01-19T03:42:33.973Z,1.97
2023-01-19T03:45:39.207Z,1.37
2023-01-19T03:48:42.176Z,3.45
2023-01-19T03:51:45.324Z,1.15
2023-01-19T03:54:48.252Z,0.77
2023-01-19T03:57:50.880Z,2.47
2023-01-19T04:00:55.335Z,1.12
2023-01-19T04:03:58.172Z,5.60
2023-01-19T04:07:01.356Z,2.17
2023-01-19T04:10:04.271Z,3.05
2023-01-19T04:13:06.879Z,1.50
2023-01-19T04:16:10.681Z,1.62
2023-01-19T04:19:13.010Z,0.90
2023-01-19T04:22:15.657Z,1.33
2023-01-19T04:25:17.967Z,1.23
2023-01-19T04:28:20.720Z,2.65
2023-01-19T04:31:23.485Z,0.80
2023-01-19T04:34:26.128Z,1.05
2023-01-19T04:37:28.504Z,6.43
2023-01-19T04:40:31.142Z,1.60
2023-01-19T04:43:33.866Z,1.00
2023-01-19T04:46:36.506Z,0.65
2023-01-19T04:49:38.981Z,1.08
2023-01-19T04:52:41.576Z,1.05
2023-01-19T04:55:44.126Z,0.68
2023-01-19T04:58:46.738Z,0.93
2023-01-19T05:01:49.075Z,0.93
2023-01-19T05:04:52.286Z,0.70
2023-01-19T05:07:54.953Z,1.02
2023-01-19T05:10:57.981Z,0.43
2023-01-19T05:14:00.411Z,1.08
2023-01-19T05:17:04.968Z,0.57
2023-01-19T05:20:09.328Z,0.55
2023-01-19T05:23:11.943Z,0.30
2023-01-19T05:26:14.485Z,0.55
2023-01-19T05:29:17.183Z,0.60
2023-01-19T05:32:19.489Z,0.70
2023-01-19T05:35:31.251Z,0.50
2023-01-19T05:38:37.317Z,0.80
2023-01-19T05:41:40.006Z,0.75
2023-01-19T05:44:42.344Z,0.77
2023-01-19T05:47:44.884Z,0.85
2023-01-19T05:50:49.488Z,0.52
2023-01-19T05:53:52.335Z,0.50
2023-01-19T05:56:54.613Z,0.37
2023-01-19T05:59:57.234Z,0.85
2023-01-19T06:03:01.021Z,1.27
2023-01-19T06:06:04.183Z,0.82
2023-01-19T06:09:07.885Z,0.45
2023-01-19T06:15:14.175Z,0.57
2023-01-19T06:18:16.850Z,1.83
2023-01-19T06:21:19.204Z,1.08
2023-01-19T06:24:23.123Z,0.60
2023-01-19T06:27:25.512Z,2.00
2023-01-19T06:30:29.092Z,1.02
2023-01-19T06:33:31.573Z,1.73
2023-01-19T06:36:34.171Z,2.30
2023-01-19T06:39:37.999Z,1.35
2023-01-19T06:48:49.563Z,1.35
2023-01-19T06:51:51.920Z,1.10
2023-01-19T06:54:54.548Z,1.55
2023-01-19T06:57:59.649Z,2.10
2023-01-19T07:01:06.995Z,1.60
2023-01-19T07:04:10.730Z,1.98
2023-01-19T07:07:13.310Z,1.77
2023-01-19T07:10:16.407Z,2.55
2023-01-19T07:13:19.021Z,2.60
2023-01-19T07:16:21.657Z,4.10
2023-01-19T07:19:24.506Z,3.22
2023-01-19T07:22:26.783Z,3.80
2023-01-19T07:25:30.310Z,3.97
2023-01-19T07:28:33.620Z,4.37
2023-01-19T07:31:36.436Z,4.55
2023-01-19T07:34:38.983Z,4.65
2023-01-19T07:37:41.608Z,4.78
2023-01-19T07:40:44.129Z,4.22
2023-01-19T07:43:46.791Z,4.53
2023-01-19T07:46:51.190Z,7.12
2023-01-19T07:49:54.068Z,6.95
2023-01-19T07:52:56.530Z,4.15
2023-01-19T07:55:59.272Z,3.55
2023-01-19T07:59:01.719Z,4.07
2023-01-19T08:02:04.943Z,4.87
2023-01-19T08:05:08.486Z,4.87
2023-01-19T08:08:13.338Z,5.37
2023-01-19T08:11:19.806Z,5.45
2023-01-19T08:14:24.333Z,3.97
2023-01-19T08:17:27.232Z,7.40
2023-01-19T08:20:30.093Z,4.43
2023-01-19T08:23:32.856Z,5.00
2023-01-19T08:26:35.793Z,3.90
2023-01-19T08:29:38.851Z,5.27
2023-01-19T08:32:41.377Z,4.85
2023-01-19T08:35:48.586Z,4.35
2023-01-19T08:38:54.190Z,5.15
2023-01-19T08:41:59.265Z,5.62
2023-01-19T08:45:07.137Z,5.25
2023-01-19T08:48:23.558Z,7.62
2023-01-19T08:51:30.106Z,8.32
2023-01-19T08:54:35.369Z,5.65
2023-01-19T08:57:40.699Z,6.20
2023-01-19T09:00:43.583Z,6.00
2023-01-19T09:03:47.048Z,5.55
2023-01-19T09:06:53.151Z,5.70
2023-01-19T09:09:59.493Z,8.23
2023-01-19T09:13:21.359Z,5.70
2023-01-19T09:16:27.358Z,5.80
2023-01-19T09:19:34.936Z,5.85
2023-01-19T09:22:39.753Z,6.57
2023-01-19T09:25:51.718Z,7.47
2023-01-19T09:28:57.161Z,7.15
2023-01-19T09:31:59.887Z,6.82
2023-01-19T09:35:05.117Z,6.80
2023-01-19T09:38:13.230Z,6.12
2023-01-19T09:41:25.156Z,5.90
2023-01-19T09:47:42.245Z,5.40
2023-01-19T09:50:48.547Z,5.05
2023-01-19T09:54:28.400Z,5.25
2023-01-19T09:57:44.779Z,5.03
2023-01-19T10:01:35.142Z,5.50
2023-01-19T10:04:49.180Z,6.37
2023-01-19T10:08:28.727Z,4.70
2023-01-19T10:11:57.700Z,8.13
2023-01-19T10:15:15.155Z,8.38
2023-01-19T10:18:25.658Z,10.93
2023-01-19T10:21:43.864Z,9.55
2023-01-19T10:24:56.188Z,10.10
2023-01-19T10:28:03.115Z,8.45
2023-01-19T10:31:16.343Z,9.65
2023-01-19T10:34:23.384Z,9.13
2023-01-19T10:37:31.867Z,10.80
2023-01-19T10:40:43.443Z,11.35
2023-01-19T10:43:47.969Z,9.70
2023-01-19T10:47:01.969Z,10.77
2023-01-19T10:50:43.358Z,7.68
2023-01-19T10:54:06.265Z,7.22
2023-01-19T10:57:19.002Z,10.10
2023-01-19T11:00:42.222Z,9.38
2023-01-19T11:03:46.800Z,9.68
2023-01-19T11:06:53.580Z,11.10
2023-01-19T11:10:15.444Z,7.85
2023-01-19T11:13:24.933Z,9.45
2023-01-19T11:16:35.999Z,7.97
2023-01-19T11:19:38.711Z,8.07
2023-01-19T11:22:44.740Z,7.55
2023-01-19T11:25:54.146Z,6.80
2023-01-19T11:28:58.980Z,7.25
2023-01-19T11:32:20.781Z,8.02
2023-01-19T11:35:42.097Z,9.98
2023-01-19T11:38:50.405Z,6.50
2023-01-19T11:42:04.828Z,6.68
2023-01-19T11:45:22.853Z,6.53
2023-01-19T11:48:29.968Z,7.00
2023-01-19T11:51:59.175Z,10.02
2023-01-19T11:55:21.518Z,8.45
2023-01-19T11:58:25.783Z,9.55
2023-01-19T12:01:37.590Z,11.93
2023-01-19T12:04:48.651Z,12.23
2023-01-19T12:07:54.255Z,12.70
2023-01-19T12:11:05.119Z,11.65
2023-01-19T12:14:27.206Z,10.25
2023-01-19T12:17:34.971Z,10.93
2023-01-19T12:20:52.168Z,11.23
2023-01-19T12:24:30.044Z,11.20
2023-01-19T12:30:58.221Z,11.38
2023-01-19T12:34:35.584Z,11.65
2023-01-19T12:37:49.461Z,12.73
2023-01-19T12:41:16.133Z,10.73
2023-01-19T12:44:27.454Z,11.63
2023-01-19T12:47:30.142Z,11.52
2023-01-19T12:50:39.056Z,11.35
2023-01-19T12:53:56.186Z,10.82
2023-01-19T12:57:09.724Z,11.02
2023-01-19T13:00:24.670Z,10.70
2023-01-19T13:03:33.378Z,12.95
2023-01-19T13:07:22.797Z,12.48
2023-01-19T13:11:06.700Z,12.20
2023-01-19T13:14:29.281Z,10.15
2023-01-19T13:17:49.978Z,14.43
2023-01-19T13:21:02.176Z,13.32
2023-01-19T13:24:15.044Z,13.35
2023-01-19T13:27:17.928Z,13.68
2023-01-19T13:30:26.622Z,10.73
2023-01-19T13:33:41.233Z,11.88
2023-01-19T13:36:49.321Z,15.35
2023-01-19T13:40:03.325Z,10.68
2023-01-19T13:43:21.401Z,13.62
2023-01-19T13:46:46.283Z,10.85
2023-01-19T13:49:54.657Z,11.70
2023-01-19T13:52:59.000Z,12.23
2023-01-19T13:56:14.728Z,13.70
2023-01-19T13:59:21.627Z,10.90
2023-01-19T14:02:26.879Z,15.75
2023-01-19T14:05:32.617Z,13.23
2023-01-19T14:08:35.151Z,12.45
2023-01-19T14:11:38.269Z,10.82
2023-01-19T14:14:48.359Z,13.27
2023-01-19T14:18:22.728Z,12.30
2023-01-19T14:21:29.292Z,24.30
2023-01-19T14:24:35.006Z,12.32
2023-01-19T14:27:48.180Z,12.88
2023-01-19T14:31:00.460Z,13.68
2023-01-19T14:34:03.007Z,14.00
2023-01-19T14:37:14.993Z,13.43
2023-01-19T14:40:20.459Z,14.05
2023-01-19T14:43:27.456Z,11.77
2023-01-19T14:46:30.984Z,13.95
2023-01-19T14:49:47.550Z,16.87
2023-01-19T14:53:10.398Z,17.12
2023-01-19T14:56:15.035Z,16.27
2023-01-19T14:59:23.091Z,16.50
2023-01-19T15:02:26.328Z,15.13
2023-01-19T15:05:28.848Z,17.05
2023-01-19T15:08:34.549Z,15.00
2023-01-19T15:11:37.318Z,18.15
2023-01-19T15:14:40.863Z,16.80
2023-01-19T15:17:43.563Z,19.27
2023-01-19T15:20:46.361Z,15.98
2023-01-19T15:23:49.487Z,18.52
2023-01-19T15:26:52.418Z,17.33
2023-01-19T15:29:54.854Z,18.35
2023-01-19T15:32:59.132Z,18.62
2023-01-19T15:39:04.324Z,18.52
2023-01-19T15:42:16.700Z,19.45
2023-01-19T15:45:48.033Z,16.27
2023-01-19T15:48:50.761Z,18.65
2023-01-19T15:51:53.690Z,20.00
2023-01-19T15:54:57.621Z,17.52
2023-01-19T15:58:03.467Z,21.95
2023-01-19T16:01:06.135Z,20.83
2023-01-19T16:04:11.974Z,23.92
2023-01-19T16:07:14.552Z,20.65
2023-01-19T16:10:17.443Z,17.80
2023-01-19T16:13:19.971Z,23.40
2023-01-19T16:16:26.823Z,23.33
2023-01-19T16:19:29.657Z,23.10
2023-01-19T16:22:32.780Z,22.87
2023-01-19T16:25:35.899Z,22.73
2023-01-19T16:28:38.676Z,21.77
2023-01-19T16:31:42.889Z,22.87
2023-01-19T16:34:45.657Z,23.48
2023-01-19T16:37:50.618Z,22.33
2023-01-19T16:40:53.238Z,21.50
2023-01-19T16:43:57.793Z,21.25
2023-01-19T16:47:00.602Z,21.83
2023-01-19T16:50:03.042Z,20.52
2023-01-19T16:53:05.748Z,22.08
2023-01-19T16:56:10.740Z,26.67
2023-01-19T16:59:15.349Z,18.98
2023-01-19T17:02:18.038Z,19.50
2023-01-19T17:05:20.648Z,19.33
2023-01-19T17:08:23.072Z,18.80
2023-01-19T17:11:28.803Z,19.02
2023-01-19T17:14:31.297Z,22.42
2023-01-19T17:17:36.290Z,16.10
2023-01-19T17:20:38.630Z,17.25
2023-01-19T17:23:46.255Z,17.17
2023-01-19T17:26:48.981Z,18.62
2023-01-19T17:29:51.646Z,18.03
2023-01-19T17:32:54.021Z,17.60
2023-01-19T17:36:02.881Z,15.38
2023-01-19T17:39:08.308Z,15.88
2023-01-19T17:42:10.959Z,18.58
2023-01-19T17:45:13.352Z,18.40
2023-01-19T17:48:17.511Z,16.42
2023-01-19T17:51:20.155Z,16.55
2023-01-19T17:54:22.885Z,16.35
2023-01-19T17:57:25.211Z,17.00
2023-01-19T18:00:29.033Z,19.45
2023-01-19T18:03:31.656Z,16.17
2023-01-19T18:06:34.191Z,13.68
2023-01-19T18:09:37.102Z,16.70
2023-01-19T18:12:39.913Z,17.08
2023-01-19T18:15:42.606Z,17.63
2023-01-19T18:18:44.928Z,13.70
2023-01-19T18:21:48.355Z,13.60
2023-01-19T18:24:50.909Z,16.23
2023-01-19T18:27:53.476Z,16.12
2023-01-19T18:30:56.021Z,15.13
2023-01-19T18:33:59.591Z,14.57
2023-01-19T18:37:01.986Z,14.23
2023-01-19T18:40:05.275Z,32.70
2023-01-19T18:43:09.238Z,27.20
2023-01-19T18:46:12.645Z,13.43
2023-01-19T18:49:15.055Z,14.07
2023-01-19T18:52:17.693Z,16.05
2023-01-19T18:55:20.123Z,13.25
2023-01-19T18:58:24.357Z,14.25
2023-01-19T19:01:33.316Z,15.55
2023-01-19T19:04:36.144Z,14.32
2023-01-19T19:07:38.560Z,13.50
2023-01-19T19:10:42.238Z,15.45
2023-01-19T19:13:45.260Z,16.60
2023-01-19T19:16:47.881Z,13.23
2023-01-19T19:19:50.328Z,13.73
2023-01-19T19:22:52.996Z,15.50
2023-01-19T19:25:55.332Z,13.80
2023-01-19T19:28:58.202Z,15.50
2023-01-19T19:32:00.539Z,14.48
2023-01-19T19:35:03.243Z,16.08
2023-01-19T19:38:05.614Z,21.73
2023-01-19T19:41:10.027Z,20.67
2023-01-19T19:44:12.875Z,16.98
2023-01-19T19:47:15.468Z,16.93
2023-01-19T19:50:17.889Z,18.60
2023-01-19T19:53:21.662Z,17.60
2023-01-19T19:56:25.829Z,15.05
2023-01-19T19:59:28.433Z,15.27
2023-01-19T20:02:31.077Z,15.20
2023-01-19T20:05:35.919Z,15.73
2023-01-19T20:08:38.248Z,13.20
2023-01-19T20:13:27.270Z,15.00
2023-01-19T20:16:30.132Z,14.55
2023-01-19T20:19:32.731Z,16.75
2023-01-19T20:22:35.451Z,15.73
2023-01-19T20:25:39.746Z,15.02
2023-01-19T20:28:42.580Z,16.92
2023-01-19T20:31:48.949Z,14.63
2023-01-19T20:34:51.840Z,13.20
2023-01-19T20:37:54.358Z,14.35
2023-01-19T20:40:57.292Z,14.77
2023-01-19T20:43:59.641Z,16.52
2023-01-19T20:47:02.253Z,16.42
2023-01-19T20:50:06.436Z,15.85
2023-01-19T20:53:09.061Z,13.85
2023-01-19T20:56:13.972Z,17.35
2023-01-19T20:59:17.373Z,17.98
2023-01-19T21:02:20.989Z,17.10
2023-01-19T21:05:24.220Z,16.73
2023-01-19T21:08:26.544Z,15.52
2023-01-19T21:11:29.528Z,14.52
2023-01-19T21:14:32.000Z,13.93
2023-01-19T21:17:34.644Z,16.05
2023-01-19T21:20:37.128Z,18.12
2023-01-19T21:23:39.772Z,22.10
2023-01-19T21:26:42.182Z,17.12
2023-01-19T21:29:44.865Z,16.77
2023-01-19T21:32:47.414Z,15.95
2023-01-19T21:35:55.409Z,18.27
2023-01-19T21:39:00.602Z,16.12
2023-01-19T21:42:03.723Z,18.40
2023-01-19T21:45:07.976Z,18.15
2023-01-19T21:48:10.707Z,20.15
2023-01-19T21:51:14.367Z,16.98
2023-01-19T21:57:19.783Z,18.23
2023-01-19T22:00:22.797Z,19.58
2023-01-19T22:03:27.327Z,17.90
2023-01-19T22:06:29.763Z,17.50
2023-01-19T22:09:36.252Z,21.35
2023-01-19T22:12:40.307Z,16.17
2023-01-19T22:15:43.117Z,19.23
2023-01-19T22:18:49.952Z,19.42
2023-01-19T22:21:52.616Z,17.08
2023-01-19T22:24:55.007Z,16.05
2023-01-19T22:27:58.681Z,19.20
2023-01-19T22:31:09.009Z,16.58
2023-01-19T22:34:12.010Z,16.95
2023-01-19T22:37:14.483Z,20.83
2023-01-19T22:40:18.517Z,16.35
2023-01-19T22:43:20.932Z,16.75
2023-01-19T22:46:28.086Z,16.08
2023-01-19T22:49:33.205Z,18.12
2023-01-19T22:52:35.874Z,16.98
2023-01-19T22:55:38.362Z,16.12
2023-01-19T22:58:51.249Z,17.05
2023-01-19T23:02:01.037Z,16.83
2023-01-19T23:05:04.111Z,17.90
2023-01-19T23:08:06.508Z,16.58
2023-01-19T23:11:22.797Z,15.45
2023-01-19T23:14:25.267Z,14.43
2023-01-19T23:17:27.903Z,16.12
2023-01-19T23:20:30.240Z,13.23
2023-01-19T23:23:33.970Z,14.05
2023-01-19T23:26:39.126Z,12.70
2023-01-19T23:29:41.794Z,13.18
2023-01-19T23:32:48.551Z,14.15
2023-01-19T23:35:51.278Z,14.90
2023-01-19T23:38:56.797Z,13.20
2023-01-19T23:41:59.461Z,12.93
2023-01-19T23:45:01.951Z,12.23
2023-01-19T23:48:04.750Z,10.73
2023-01-19T23:51:09.102Z,13.88
2023-01-19T23:54:12.423Z,13.52
2023-01-19T23:57:14.766Z,14.30
